Hilmoe, South Dakota
Current Conditions -  °F | °C
As of 3:53 PM on Tuesday 21 Oct 2014 (Local Time) from KPIR Reporting Station
Clear Clear  
Wind Chill: 83°   Ceiling: Unl
Heat Index: 83°   Visibility: 10mi
Dew Point: 39°   Wind: 25mph
Humidity: 21%   Direction: 180°S
Pressure: 29.76"   Gusts: 36mph
Location:  43.909°N, 100.128°W
Report Text: KPIR 212053Z AUTO 18022G31KT 10SM CLR 28/04 A2976 RMK AO2 PK WND 16036/1956 SLP067 T02830039 56017
Loading
Personal Weather Stations






























Interactive Weather Map
Tropical Storm Tracking
New forecast layout! Learn more

10-Day Weather Forecast

Advertisements
Track Severe Weather on mobile